Nashville Plt, Maine
Current Conditions -  °F | °C
As of 6:55 PM on Monday 20 Oct 2014 (Local Time) from KPQI Reporting Station
Clear Clear  
Wind Chill: 36°   Ceiling: Unl
Heat Index: 39°   Visibility: 10mi
Dew Point: 23°   Wind: 5mph
Humidity: 52%   Direction: 300°WNW
Pressure: 29.86"   Gusts: NA
Location:  46.6213°N, 68.5555°W
Report Text: KPQI 202255Z AUTO 30004KT 10SM CLR 04/M05 A2986 RMK AO1
Loading
Personal Weather Stations






























Interactive Weather Map
Tropical Storm Tracking
New forecast layout! Learn more

10-Day Weather Forecast

Advertisements
Track Severe Weather on mobile